CheckWX is a tool to help pilots better visualize weather data.  It is not intended as a substitute for an official pre-flight weather briefing.

02:09:10 UTC

KCVG TAF
Cincinnati / Northern Kentucky International Airport
Covington, Kentucky, USA
KCVG 182320Z 1900/2006 34004KT P6SM BKN070 FM190300 00000KT P6SM SCT070 FM191600 28005KT P6SM SCT040 FM200000 VRB03KT P6SM SCT250 FM200300 16004KT P6SM SCT150

Mar-19@
00:00 UTC

Mar-19 @ 00:00 UTC

Mar-19@
03:00 UTC

Mar-19 @ 03:00 UTC

KCVG 182320Z 1900/2006 34004KT P6SM BKN070
Wind
  • 340° at 4 KTS
Cloud Levels
  • Broken at 7,000' AGL

Mar-19@
03:00 UTC

Mar-19 @ 03:00 UTC

Mar-19@
16:00 UTC

Mar-19 @ 16:00 UTC

FM190300 00000KT P6SM SCT070

From

From Standard forecast or significant change

Cloud Levels
  • Scattered at 7,000' AGL

Mar-19@
16:00 UTC

Mar-19 @ 16:00 UTC

Mar-20@
00:00 UTC

Mar-20 @ 00:00 UTC

FM191600 28005KT P6SM SCT040

From

From Standard forecast or significant change

Wind
  • 280° at 5 KTS
Cloud Levels
  • Scattered at 4,000' AGL

Mar-20@
00:00 UTC

Mar-20 @ 00:00 UTC

Mar-20@
03:00 UTC

Mar-20 @ 03:00 UTC

FM200000 VRB03KT P6SM SCT250

From

From Standard forecast or significant change

Wind
  • Variable at 3 KTS
Cloud Levels
  • Scattered at 25,000' AGL

Mar-20@
03:00 UTC

Mar-20 @ 03:00 UTC

Mar-20@
06:00 UTC

Mar-20 @ 06:00 UTC

FM200300 16004KT P6SM SCT150

From

From Standard forecast or significant change

Wind
  • 160° at 4 KTS
Cloud Levels
  • Scattered at 15,000' AGL